Time;durP1;ratioP1;P1;durP2;ratioP2;P2;SDS_P1;SDS_P2;PMS_P1;PMS_P2;Temp;Humidity;BMP_temperature;BMP_pressure;BME280_temperature;BME280_humidity;BME280_pressure;Samples;Min_cycle;Max_cycle;Signal;HPM_P1;HPM_P2
2021/04/30 00:01:50;;;;;;;20.85;9.15;;;;;;;4.61;75.89;99866.81;5019729;28;20053;-73
2021/04/30 00:04:17;;;;;;;19.10;9.13;;;;;;;4.53;75.94;99865.41;5019610;28;20495;-71
2021/04/30 00:06:43;;;;;;;13.23;9.18;;;;;;;4.55;76.12;99868.84;5018813;28;20063;-73
2021/04/30 00:09:10;;;;;;;16.38;8.38;;;;;;;4.52;75.90;99863.69;5019796;28;20049;-70
2021/04/30 00:11:36;;;;;;;16.77;9.90;;;;;;;4.47;75.88;99870.00;5036736;28;20064;-71
2021/04/30 00:14:03;;;;;;;17.77;8.90;;;;;;;4.40;76.32;99867.69;5019287;28;20045;-72
2021/04/30 00:16:29;;;;;;;13.55;8.90;;;;;;;4.33;76.37;99864.41;5036786;28;20053;-71
2021/04/30 00:18:55;;;;;;;17.30;9.05;;;;;;;4.30;76.12;99859.28;5036796;28;20085;-72
2021/04/30 00:21:22;;;;;;;12.40;9.40;;;;;;;4.26;76.53;99869.09;5019623;28;20084;-72
2021/04/30 00:23:48;;;;;;;17.30;8.85;;;;;;;4.33;76.05;99867.94;5036600;28;20085;-70
2021/04/30 00:26:14;;;;;;;19.98;8.80;;;;;;;4.21;76.60;99869.25;5036957;28;20050;-72
2021/04/30 00:28:41;;;;;;;18.65;9.52;;;;;;;4.13;76.79;99863.41;5036917;28;20088;-72
2021/04/30 00:31:08;;;;;;;20.42;9.98;;;;;;;4.13;76.80;99866.06;5019578;28;20049;-72
2021/04/30 00:33:35;;;;;;;19.42;10.13;;;;;;;4.13;76.71;99873.16;5036507;28;20064;-72
2021/04/30 00:36:02;;;;;;;17.15;9.43;;;;;;;4.12;76.57;99876.69;5036496;28;20056;-73
2021/04/30 00:38:28;;;;;;;17.85;9.57;;;;;;;4.06;76.52;99872.50;5036628;28;20072;-70
2021/04/30 00:40:54;;;;;;;19.75;9.70;;;;;;;4.09;76.16;99872.41;5036562;28;20053;-71
2021/04/30 00:43:20;;;;;;;17.48;9.23;;;;;;;3.97;76.20;99851.75;5019065;28;20045;-71
2021/04/30 00:45:47;;;;;;;14.70;9.35;;;;;;;4.10;76.04;99884.69;5035438;28;20053;-71
2021/04/30 00:48:13;;;;;;;18.90;9.60;;;;;;;4.04;76.33;99885.75;5036310;28;20057;-71
2021/04/30 00:50:39;;;;;;;16.70;9.80;;;;;;;4.07;76.34;99888.31;5036247;28;20057;-71
2021/04/30 00:53:06;;;;;;;16.23;8.98;;;;;;;4.10;76.13;99889.09;5018793;28;20056;-70
2021/04/30 00:55:33;;;;;;;18.90;9.93;;;;;;;3.96;76.48;99882.56;5036307;28;20057;-71
2021/04/30 00:58:01;;;;;;;19.67;9.60;;;;;;;4.08;76.46;99897.06;5018694;28;20052;-71
2021/04/30 01:00:31;;;;;;;18.30;9.52;;;;;;;4.07;76.41;99900.63;5036391;28;20050;-71
2021/04/30 01:02:57;;;;;;;22.73;10.48;;;;;;;4.10;76.01;99900.53;5036175;28;20053;-71
2021/04/30 01:05:24;;;;;;;15.45;9.20;;;;;;;4.12;76.15;99903.09;5035811;28;20355;-71
2021/04/30 01:07:51;;;;;;;19.73;9.70;;;;;;;4.20;75.90;99906.31;5036017;28;20129;-71
2021/04/30 01:10:18;;;;;;;19.33;9.25;;;;;;;4.26;75.76;99899.94;5035797;28;20397;-71
2021/04/30 01:12:45;;;;;;;14.20;9.07;;;;;;;4.34;75.35;99911.94;5035656;28;20397;-71
2021/04/30 01:15:13;;;;;;;17.15;8.50;;;;;;;4.39;75.22;99906.47;5036060;28;20370;-72
2021/04/30 01:17:40;;;;;;;16.77;8.65;;;;;;;4.35;75.10;99907.50;5035845;28;20050;-72
2021/04/30 01:20:09;;;;;;;13.88;8.35;;;;;;;4.33;75.42;99910.22;5035446;28;20412;-70
2021/04/30 01:22:35;;;;;;;17.75;8.00;;;;;;;4.41;75.33;99907.25;5035712;28;20041;-71
2021/04/30 01:25:03;;;;;;;12.57;8.70;;;;;;;4.49;74.92;99912.25;5035740;28;20079;-71
2021/04/30 01:27:30;;;;;;;24.10;10.10;;;;;;;4.47;74.62;99907.00;5035578;28;20057;-72
2021/04/30 01:29:56;;;;;;;18.08;9.30;;;;;;;4.47;74.68;99909.66;5035661;28;20068;-72
2021/04/30 01:32:22;;;;;;;13.80;8.32;;;;;;;4.48;74.39;99903.44;5018250;28;20099;-71
2021/04/30 01:34:49;;;;;;;14.38;8.43;;;;;;;4.51;74.39;99910.38;5035687;28;20616;-72
2021/04/30 01:37:15;;;;;;;17.48;8.50;;;;;;;4.53;74.83;99907.69;5018186;28;20053;-71
2021/04/30 01:39:42;;;;;;;15.73;8.60;;;;;;;4.62;74.69;99921.41;5035298;28;20514;-72
2021/04/30 01:42:08;;;;;;;15.38;8.98;;;;;;;4.62;74.44;99926.69;5035360;28;20328;-71
2021/04/30 01:44:35;;;;;;;12.93;7.95;;;;;;;4.65;74.33;99915.13;5035772;28;20053;-73
2021/04/30 01:47:01;;;;;;;15.48;8.35;;;;;;;4.56;73.97;99918.13;5035022;28;20054;-73
2021/04/30 01:49:28;;;;;;;14.98;9.80;;;;;;;4.61;73.82;99910.88;5035209;28;20319;-72
2021/04/30 01:51:55;;;;;;;22.15;9.77;;;;;;;4.58;73.99;99901.28;5035120;28;20099;-71
2021/04/30 01:54:22;;;;;;;13.85;8.70;;;;;;;4.64;74.11;99897.56;5035313;28;20050;-72
2021/04/30 01:56:48;;;;;;;20.08;8.57;;;;;;;4.62;73.47;99896.72;5017887;28;20057;-72
2021/04/30 01:59:14;;;;;;;16.23;8.85;;;;;;;4.68;73.54;99890.38;5017806;28;20450;-71
2021/04/30 02:01:41;;;;;;;13.13;8.48;;;;;;;4.60;73.87;99898.59;5035396;28;20049;-72
2021/04/30 02:04:10;;;;;;;14.40;8.45;;;;;;;4.49;74.08;99899.88;5018065;28;20056;-71
2021/04/30 02:06:40;;;;;;;17.17;8.48;;;;;;;4.40;74.60;99894.97;5018246;28;20504;-70
2021/04/30 02:09:08;;;;;;;17.00;6.97;;;;;;;4.45;74.69;99900.94;5035130;28;20374;-70
2021/04/30 02:11:36;;;;;;;17.33;8.88;;;;;;;4.31;74.71;99900.63;5035014;28;20063;-71
2021/04/30 02:14:04;;;;;;;16.75;8.50;;;;;;;4.32;74.54;99905.81;5034973;28;20427;-71
2021/04/30 02:16:32;;;;;;;17.25;9.43;;;;;;;4.21;75.47;99906.25;5033951;28;20088;-72
2021/04/30 02:18:58;;;;;;;18.17;9.00;;;;;;;4.28;75.35;99906.00;5035220;28;20103;-72
2021/04/30 02:21:25;;;;;;;17.90;9.18;;;;;;;4.37;75.14;99908.31;5035175;28;20099;-72
2021/04/30 02:23:51;;;;;;;17.67;8.93;;;;;;;4.37;74.80;99910.94;5017635;28;20049;-70
2021/04/30 02:26:17;;;;;;;20.27;8.55;;;;;;;4.47;74.60;99914.94;5034917;28;20060;-72
2021/04/30 02:28:45;;;;;;;15.73;8.40;;;;;;;4.54;74.52;99909.41;5035145;28;20434;-71
2021/04/30 02:31:13;;;;;;;15.25;9.75;;;;;;;4.52;74.08;99896.25;5038856;28;20045;-71
2021/04/30 02:33:43;;;;;;;18.58;9.30;;;;;;;4.60;74.57;99903.88;5021356;28;20052;-71
2021/04/30 02:36:10;;;;;;;11.95;8.23;;;;;;;4.62;73.61;99899.38;5038931;28;20494;-72
2021/04/30 02:38:36;;;;;;;12.38;8.52;;;;;;;4.56;74.13;99894.34;5038963;28;20080;-71
2021/04/30 02:41:03;;;;;;;17.00;8.52;;;;;;;4.58;74.06;99890.72;5021820;28;20053;-71
2021/04/30 02:43:30;;;;;;;12.65;8.57;;;;;;;4.52;74.22;99890.97;5041078;28;20049;-71
2021/04/30 02:45:57;;;;;;;20.50;8.95;;;;;;;4.54;74.31;99883.84;5039055;28;20393;-72
2021/04/30 02:48:31;;;;;;;22.13;9.30;;;;;;;4.44;74.60;99888.66;5038983;28;20057;-71
2021/04/30 02:51:00;;;;;;;23.77;9.60;;;;;;;4.40;74.78;99884.38;5042858;28;20049;-71
2021/04/30 02:53:27;;;;;;;16.58;8.68;;;;;;;4.40;74.96;99889.69;5024815;28;20045;-71
2021/04/30 02:55:54;;;;;;;19.80;9.00;;;;;;;4.43;74.85;99889.56;5040426;28;20131;-71
2021/04/30 02:58:20;;;;;;;14.20;8.27;;;;;;;4.42;74.93;99893.09;5038643;28;20053;-71
2021/04/30 03:00:48;;;;;;;20.45;9.90;;;;;;;4.39;75.41;99893.25;5038561;28;20056;-72
2021/04/30 03:03:14;;;;;;;21.15;11.02;;;;;;;4.43;75.62;99896.63;5038279;28;20061;-71
2021/04/30 03:05:41;;;;;;;19.92;10.32;;;;;;;4.47;75.19;99899.06;5038202;28;20053;-71
2021/04/30 03:08:08;;;;;;;24.17;9.13;;;;;;;4.42;75.48;99889.63;5038239;28;20103;-72
2021/04/30 03:10:34;;;;;;;17.00;9.25;;;;;;;4.45;75.22;99885.06;5038245;28;20046;-72
2021/04/30 03:13:01;;;;;;;16.92;9.73;;;;;;;4.58;75.14;99903.09;5038874;28;20045;-70
2021/04/30 03:15:27;;;;;;;20.52;8.95;;;;;;;4.60;74.71;99914.44;5004896;28;20046;-71
2021/04/30 03:17:54;;;;;;;17.92;9.65;;;;;;;4.60;75.20;99922.38;5038626;28;20049;-71
2021/04/30 03:20:21;;;;;;;18.35;9.73;;;;;;;4.55;75.08;99922.56;5037567;28;20053;-72
2021/04/30 03:22:48;;;;;;;18.00;9.95;;;;;;;4.53;75.52;99919.09;5037964;28;20081;-72
2021/04/30 03:25:16;;;;;;;17.13;8.63;;;;;;;4.59;75.00;99923.31;5038006;28;20103;-71
2021/04/30 03:27:42;;;;;;;19.75;9.77;;;;;;;4.58;75.22;99918.94;5021622;28;20045;-71
2021/04/30 03:30:09;;;;;;;20.67;10.30;;;;;;;4.54;75.42;99914.69;5039477;28;20100;-70
2021/04/30 03:32:37;;;;;;;16.83;9.45;;;;;;;4.55;74.71;99903.19;5020825;28;20052;-71
2021/04/30 03:35:05;;;;;;;21.42;9.43;;;;;;;4.48;75.04;99890.22;5037913;28;20065;-71
2021/04/30 03:37:31;;;;;;;21.02;9.77;;;;;;;4.59;74.80;99902.16;5037961;28;20057;-71
2021/04/30 03:39:57;;;;;;;18.17;9.43;;;;;;;4.57;74.60;99893.44;5037682;28;20140;-71
2021/04/30 03:42:24;;;;;;;20.00;9.45;;;;;;;4.54;74.76;99894.44;5020454;28;20103;-71
2021/04/30 03:44:50;;;;;;;16.20;9.45;;;;;;;4.61;74.85;99884.44;5038737;28;20053;-71
2021/04/30 03:47:16;;;;;;;13.88;8.95;;;;;;;4.63;74.91;99882.59;5020574;28;20449;-72
2021/04/30 03:49:42;;;;;;;17.42;8.85;;;;;;;4.65;74.42;99883.41;5020609;28;20050;-72
2021/04/30 03:52:08;;;;;;;14.13;9.40;;;;;;;4.71;74.64;99883.16;5038262;28;20057;-72
2021/04/30 03:54:35;;;;;;;18.00;9.18;;;;;;;4.67;74.65;99875.41;5021457;28;20378;-71
2021/04/30 03:57:02;;;;;;;16.67;10.13;;;;;;;4.65;74.92;99872.84;5021016;28;20061;-71
2021/04/30 03:59:28;;;;;;;18.35;9.32;;;;;;;4.61;75.20;99876.50;5038235;28;20439;-71
2021/04/30 04:01:55;;;;;;;17.65;9.63;;;;;;;4.56;75.28;99873.19;5038582;28;20049;-71
2021/04/30 04:04:21;;;;;;;19.60;10.13;;;;;;;4.67;75.00;99884.19;5020770;28;20088;-71
2021/04/30 04:06:47;;;;;;;18.92;10.43;;;;;;;4.59;75.44;99887.16;5020475;28;20057;-71
2021/04/30 04:09:13;;;;;;;19.27;9.55;;;;;;;4.66;75.28;99886.91;5021177;28;20139;-72
2021/04/30 04:11:40;;;;;;;18.92;10.15;;;;;;;4.76;75.76;99883.81;5038172;28;20135;-71
2021/04/30 04:14:07;;;;;;;18.50;9.45;;;;;;;4.83;75.20;99889.72;5020296;28;20508;-71
2021/04/30 04:16:34;;;;;;;14.93;8.95;;;;;;;4.82;75.26;99887.13;5037129;28;20709;-71
2021/04/30 04:19:00;;;;;;;18.40;10.23;;;;;;;4.68;75.48;99885.06;5019985;28;20393;-71
2021/04/30 04:21:27;;;;;;;15.88;9.73;;;;;;;4.69;75.48;99879.69;5020784;28;20054;-71
2021/04/30 04:23:53;;;;;;;21.27;10.73;;;;;;;4.73;75.41;99881.31;5037587;28;20049;-71
2021/04/30 04:26:19;;;;;;;21.60;11.15;;;;;;;4.71;75.20;99898.16;5037209;28;20060;-71
2021/04/30 04:28:45;;;;;;;20.85;10.25;;;;;;;4.70;75.66;99893.78;5037846;28;20111;-70
2021/04/30 04:31:11;;;;;;;19.35;10.68;;;;;;;4.63;75.66;99898.44;5036775;28;20072;-71
2021/04/30 04:33:38;;;;;;;16.02;10.52;;;;;;;4.69;75.79;99898.22;5036692;28;20056;-71
2021/04/30 04:36:04;;;;;;;23.50;10.77;;;;;;;4.82;75.67;99897.72;5036506;28;20099;-71
2021/04/30 04:38:32;;;;;;;18.23;10.70;;;;;;;4.85;75.60;99897.59;5019295;28;20049;-71
2021/04/30 04:40:59;;;;;;;16.08;10.57;;;;;;;4.80;75.12;99886.34;5036429;28;20133;-71
2021/04/30 04:43:25;;;;;;;20.20;10.55;;;;;;;4.90;75.43;99900.88;5036341;28;20055;-71
2021/04/30 04:45:51;;;;;;;21.67;11.05;;;;;;;4.81;75.26;99896.00;5029741;28;20060;-71
2021/04/30 04:48:18;;;;;;;22.02;10.57;;;;;;;4.89;75.81;99910.63;5016477;28;20061;-71
2021/04/30 04:50:44;;;;;;;21.92;11.50;;;;;;;4.88;75.67;99906.25;5016239;28;20061;-71
2021/04/30 04:53:25;;;;;;;19.98;11.07;;;;;;;4.88;75.90;99914.19;5016006;28;20053;-71
2021/04/30 04:56:11;;;;;;;20.15;11.20;;;;;;;4.88;76.08;99918.59;5026820;28;20057;-72
2021/04/30 04:58:38;;;;;;;20.13;11.35;;;;;;;4.74;75.84;99922.69;5016678;28;20134;-71
2021/04/30 05:01:06;;;;;;;18.50;10.98;;;;;;;4.81;76.10;99925.06;5018018;28;20057;-73
2021/04/30 05:03:32;;;;;;;22.83;11.13;;;;;;;4.86;76.32;99928.41;5034859;28;20045;-71
2021/04/30 05:05:59;;;;;;;18.70;11.00;;;;;;;4.85;76.00;99911.66;5036245;28;20081;-71
2021/04/30 05:08:25;;;;;;;21.13;11.43;;;;;;;4.89;76.19;99925.63;5035744;28;20049;-73
2021/04/30 05:10:51;;;;;;;18.17;11.90;;;;;;;4.88;75.55;99926.53;5035698;28;20132;-72
2021/04/30 05:13:17;;;;;;;20.42;13.20;;;;;;;4.85;75.81;99922.25;5014816;28;20100;-72
2021/04/30 05:15:55;;;;;;;19.98;10.93;;;;;;;4.87;76.21;99911.59;5016349;28;20057;-71
2021/04/30 05:18:22;;;;;;;16.30;10.98;;;;;;;4.96;76.01;99921.78;5031484;28;20429;-72
2021/04/30 05:20:48;;;;;;;20.48;11.70;;;;;;;4.96;75.67;99926.25;5016102;28;20060;-74
2021/04/30 05:23:14;;;;;;;23.15;12.05;;;;;;;4.98;75.55;99916.44;5031286;28;20050;-72
2021/04/30 05:25:40;;;;;;;19.98;10.65;;;;;;;5.13;75.57;99921.09;5015748;28;20324;-73
2021/04/30 05:28:07;;;;;;;18.75;12.75;;;;;;;5.11;75.83;99919.44;5030844;28;20132;-72
2021/04/30 05:30:33;;;;;;;21.15;11.57;;;;;;;5.12;75.56;99921.16;5014851;28;20050;-71
2021/04/30 05:33:01;;;;;;;22.25;12.43;;;;;;;5.19;75.52;99919.09;5015652;28;20049;-71
2021/04/30 05:35:28;;;;;;;19.70;11.55;;;;;;;5.17;75.67;99921.81;5015887;28;20057;-72
2021/04/30 05:37:55;;;;;;;18.23;11.85;;;;;;;5.15;75.62;99928.97;5015534;28;20439;-70
2021/04/30 05:40:21;;;;;;;17.55;11.50;;;;;;;5.20;75.91;99918.19;5015552;28;20466;-73
2021/04/30 05:42:47;;;;;;;19.08;12.27;;;;;;;5.21;75.58;99920.78;5022885;28;20056;-70
2021/04/30 05:45:14;;;;;;;19.60;12.48;;;;;;;5.13;76.24;99926.38;5025545;28;20049;-75
2021/04/30 05:47:41;;;;;;;22.58;11.93;;;;;;;5.12;76.02;99915.88;5025185;28;20651;-71
2021/04/30 05:50:09;;;;;;;19.27;12.82;;;;;;;5.21;76.34;99927.84;5008680;28;20057;-73
2021/04/30 05:52:35;;;;;;;23.23;12.35;;;;;;;5.25;76.16;99924.13;5027631;28;20053;-73
2021/04/30 05:55:04;;;;;;;22.42;12.65;;;;;;;5.28;76.03;99924.88;5032283;28;20049;-76
2021/04/30 05:57:30;;;;;;;24.15;12.82;;;;;;;5.40;75.71;99931.41;5035000;28;20427;-80
2021/04/30 06:00:00;;;;;;;20.38;13.00;;;;;;;5.51;75.84;99928.28;5039814;28;20061;-72
2021/04/30 06:02:26;;;;;;;21.17;12.25;;;;;;;5.49;75.79;99938.09;5021827;28;20045;-76
2021/04/30 06:04:53;;;;;;;27.23;11.68;;;;;;;5.59;75.32;99930.63;5025745;28;20100;-78
2021/04/30 06:07:19;;;;;;;23.52;12.68;;;;;;;5.66;74.96;99933.88;5025131;28;20065;-71
2021/04/30 06:09:45;;;;;;;25.65;12.02;;;;;;;5.71;74.99;99931.84;5026354;28;20046;-75
2021/04/30 06:12:12;;;;;;;25.48;14.02;;;;;;;5.81;74.71;99938.47;5003294;28;20057;-77
2021/04/30 06:14:39;;;;;;;24.45;12.70;;;;;;;5.94;74.42;99946.72;5023363;28;20046;-74
2021/04/30 06:17:05;;;;;;;23.15;12.68;;;;;;;5.89;74.40;99948.72;5020426;28;20091;-76
2021/04/30 06:19:32;;;;;;;25.55;11.68;;;;;;;5.89;74.25;99929.31;5032648;28;20134;-75
2021/04/30 06:21:58;;;;;;;21.10;11.80;;;;;;;5.92;74.20;99953.88;5033495;28;20123;-76
2021/04/30 06:24:24;;;;;;;20.25;11.85;;;;;;;5.94;74.07;99943.22;5034536;28;20430;-76
2021/04/30 06:26:51;;;;;;;23.20;12.43;;;;;;;5.84;73.93;99930.38;5016748;28;20056;-76
2021/04/30 06:29:17;;;;;;;24.48;11.75;;;;;;;6.00;73.14;99932.34;5017331;28;20058;-76
2021/04/30 06:31:43;;;;;;;16.92;10.93;;;;;;;6.13;72.86;99940.63;5035602;28;20060;-76
2021/04/30 06:34:10;;;;;;;18.90;11.80;;;;;;;6.13;72.81;99940.63;5035549;28;20056;-76
2021/04/30 06:36:36;;;;;;;19.02;11.43;;;;;;;6.06;73.27;99953.28;5017851;28;20111;-73
2021/04/30 06:39:04;;;;;;;23.92;12.93;;;;;;;6.10;73.79;99941.63;5031424;28;20050;-76
2021/04/30 06:41:30;;;;;;;20.50;12.02;;;;;;;6.04;74.04;99947.19;5032663;28;20056;-74
2021/04/30 06:43:57;;;;;;;22.35;12.68;;;;;;;6.22;73.57;99937.53;5033999;28;20042;-73
2021/04/30 06:46:23;;;;;;;27.33;12.45;;;;;;;6.22;73.50;99948.13;5033849;28;20057;-74
2021/04/30 06:48:54;;;;;;;;;;;;;;;6.20;72.92;99943.81;5035233;28;20057;-73
2021/04/30 06:51:21;;;;;;;18.15;12.55;;;;;;;6.14;73.23;99938.84;5034756;28;20306;-73
2021/04/30 06:53:47;;;;;;;22.98;12.55;;;;;;;6.24;73.86;99948.06;5034748;28;20042;-73
2021/04/30 06:56:13;;;;;;;18.13;11.88;;;;;;;6.33;73.24;99946.78;5034575;28;20054;-74
2021/04/30 06:58:40;;;;;;;22.45;12.55;;;;;;;6.29;73.55;99950.50;5034923;28;20056;-73
2021/04/30 07:01:10;;;;;;;21.52;12.98;;;;;;;6.36;73.53;99960.75;5034029;28;20053;-75
2021/04/30 07:03:37;;;;;;;23.15;14.10;;;;;;;6.41;73.38;99960.53;5033378;28;20422;-73
2021/04/30 07:06:04;;;;;;;23.83;13.32;;;;;;;6.27;73.60;99945.28;5034398;28;20065;-74
2021/04/30 07:08:30;;;;;;;28.10;13.10;;;;;;;6.56;73.30;99960.72;5035006;28;20049;-73
2021/04/30 07:10:57;;;;;;;23.55;13.48;;;;;;;6.65;72.90;99963.81;5033488;28;20053;-74
2021/04/30 07:13:24;;;;;;;22.00;12.25;;;;;;;6.75;72.95;99966.03;5030519;28;20057;-75
2021/04/30 07:15:50;;;;;;;21.35;13.15;;;;;;;6.79;72.57;99972.91;5016970;28;20058;-74
2021/04/30 07:18:16;;;;;;;26.63;12.43;;;;;;;6.75;72.63;99968.69;5018622;28;20061;-74
2021/04/30 07:20:45;;;;;;;19.30;12.40;;;;;;;6.92;71.67;99970.53;5016163;28;20049;-74
2021/04/30 07:23:12;;;;;;;23.30;12.38;;;;;;;6.99;71.61;99976.38;5033552;28;20045;-75
2021/04/30 07:25:38;;;;;;;17.90;12.05;;;;;;;6.92;71.42;99986.44;5018560;28;20066;-75
2021/04/30 07:28:05;;;;;;;25.15;13.32;;;;;;;6.77;72.43;99978.28;5018532;28;20057;-74
2021/04/30 07:30:31;;;;;;;26.33;13.05;;;;;;;6.76;72.45;99978.38;5018168;28;20064;-73
2021/04/30 07:32:57;;;;;;;25.33;13.75;;;;;;;6.74;72.48;99982.88;5018519;28;20050;-74
2021/04/30 07:35:38;;;;;;;22.08;13.02;;;;;;;6.83;72.37;99981.56;5018970;28;20057;-74
2021/04/30 07:38:05;;;;;;;19.25;13.65;;;;;;;6.99;72.34;99977.25;5018280;28;20061;-73
2021/04/30 07:40:32;;;;;;;18.90;12.90;;;;;;;7.06;71.64;99964.53;5017082;28;20124;-75
2021/04/30 07:42:58;;;;;;;24.73;14.25;;;;;;;7.18;71.36;99968.34;5018359;28;20045;-73
2021/04/30 07:45:25;;;;;;;22.83;14.00;;;;;;;7.20;70.61;99970.00;5033256;28;20053;-73
2021/04/30 07:47:51;;;;;;;25.25;13.40;;;;;;;7.30;69.68;99965.09;5016875;28;20161;-73
2021/04/30 07:50:19;;;;;;;28.05;13.65;;;;;;;7.22;69.67;99971.72;5017103;28;20410;-73
2021/04/30 07:52:45;;;;;;;25.00;13.25;;;;;;;7.15;70.47;99960.56;5017842;28;20057;-73
2021/04/30 07:55:12;;;;;;;32.85;13.60;;;;;;;7.30;70.76;99974.88;5016588;28;20049;-74
2021/04/30 07:57:38;;;;;;;27.00;13.77;;;;;;;7.38;69.74;99974.47;5017812;28;20050;-73
2021/04/30 08:00:06;;;;;;;24.73;14.45;;;;;;;7.37;70.07;99968.31;5017408;28;20061;-74
2021/04/30 08:02:32;;;;;;;21.77;12.88;;;;;;;7.29;69.64;99962.50;5017595;28;20057;-74
2021/04/30 08:04:59;;;;;;;22.52;13.75;;;;;;;7.38;69.73;99970.00;5017293;28;20062;-74
2021/04/30 08:07:25;;;;;;;23.98;14.23;;;;;;;7.40;70.15;99973.44;5016498;28;20057;-74
2021/04/30 08:09:53;;;;;;;28.88;13.90;;;;;;;7.31;69.96;99965.97;5033013;28;20068;-74
2021/04/30 08:12:20;;;;;;;28.70;14.48;;;;;;;7.40;69.96;99969.94;5028554;28;20064;-73
2021/04/30 08:14:46;;;;;;;30.90;15.80;;;;;;;7.37;70.22;99978.94;5031307;28;20045;-73
2021/04/30 08:17:13;;;;;;;22.23;13.82;;;;;;;7.30;69.75;99964.25;5019395;28;20050;-73
2021/04/30 08:19:39;;;;;;;22.70;15.27;;;;;;;7.25;69.83;99988.34;5036796;28;20430;-73
2021/04/30 08:22:07;;;;;;;26.13;15.38;;;;;;;7.13;70.69;99995.13;5036184;28;20069;-73
2021/04/30 08:24:34;;;;;;;30.98;14.45;;;;;;;7.15;70.72;99987.94;5039180;28;20107;-74
2021/04/30 08:27:00;;;;;;;25.73;13.95;;;;;;;7.29;70.38;99992.56;5056195;28;20049;-74
2021/04/30 08:29:27;;;;;;;29.65;14.20;;;;;;;7.24;69.85;99985.78;5056919;28;20053;-73
2021/04/30 08:31:54;;;;;;;25.70;14.48;;;;;;;7.24;69.65;99994.59;5055625;28;20512;-73
2021/04/30 08:34:20;;;;;;;29.65;15.30;;;;;;;7.32;69.59;99987.09;5056406;28;20095;-73
2021/04/30 08:37:06;;;;;;;27.83;15.23;;;;;;;7.50;69.58;99986.25;5056693;28;20091;-73
2021/04/30 08:39:32;;;;;;;31.35;15.38;;;;;;;7.57;69.23;99977.88;5056869;28;20094;-74
2021/04/30 08:42:00;;;;;;;29.50;14.80;;;;;;;7.68;68.58;99989.78;5056634;28;20048;-74
2021/04/30 08:44:27;;;;;;;29.45;13.82;;;;;;;7.75;67.13;99981.38;5056546;28;20052;-73
2021/04/30 08:46:53;;;;;;;30.65;15.77;;;;;;;7.87;65.91;99976.38;5056225;28;20327;-74
2021/04/30 08:49:20;;;;;;;32.28;15.38;;;;;;;7.98;66.98;99984.66;5056415;28;20139;-74
2021/04/30 08:51:47;;;;;;;23.17;14.05;;;;;;;8.18;66.35;99988.03;5022365;28;20111;-74
2021/04/30 08:54:16;;;;;;;26.85;14.35;;;;;;;8.29;65.64;99984.81;5055326;28;20041;-74
2021/04/30 08:56:49;;;;;;;26.75;14.88;;;;;;;8.41;64.36;99996.56;5022657;28;20055;-74
2021/04/30 08:59:15;;;;;;;22.00;13.75;;;;;;;8.61;64.24;99994.63;5039496;28;20057;-75
2021/04/30 09:01:42;;;;;;;21.33;13.13;;;;;;;8.66;63.16;99995.25;5038664;28;20158;-75
2021/04/30 09:04:08;;;;;;;20.65;12.50;;;;;;;8.52;63.02;100002.19;5056321;28;20045;-74
2021/04/30 09:06:38;;;;;;;23.90;13.43;;;;;;;8.58;63.53;100000.13;5038213;28;20354;-75
2021/04/30 09:09:13;;;;;;;23.88;12.45;;;;;;;8.60;62.80;100003.56;5055960;28;20422;-73
2021/04/30 09:11:47;;;;;;;23.13;13.07;;;;;;;8.39;63.47;99993.97;5036441;28;20075;-73
2021/04/30 09:14:43;;;;;;;25.58;12.68;;;;;;;8.29;63.58;100014.88;5045023;28;20052;-74
2021/04/30 09:17:15;;;;;;;28.20;13.32;;;;;;;8.31;63.60;100012.16;5035145;28;20137;-74
2021/04/30 09:19:48;;;;;;;21.77;12.13;;;;;;;8.52;62.50;100007.50;5036009;28;20081;-74
2021/04/30 09:22:21;;;;;;;26.67;13.00;;;;;;;8.78;61.73;100014.97;5035252;28;20065;-74
2021/04/30 09:24:59;;;;;;;21.90;12.38;;;;;;;8.95;61.59;100000.72;5035632;28;20051;-74
2021/04/30 09:27:33;;;;;;;35.97;12.63;;;;;;;9.02;61.31;100007.41;5035659;28;20051;-74
2021/04/30 09:30:26;;;;;;;21.33;13.57;;;;;;;9.12;60.92;100005.09;5035788;28;20053;-74
2021/04/30 09:33:05;;;;;;;25.50;12.48;;;;;;;8.91;60.52;100008.03;5018484;28;20509;-74
2021/04/30 09:35:33;;;;;;;22.45;12.57;;;;;;;8.94;60.69;100014.97;5034794;28;20128;-74
2021/04/30 09:38:12;;;;;;;25.65;12.50;;;;;;;8.78;61.75;100017.66;5035717;28;20053;-75
2021/04/30 09:40:38;;;;;;;19.90;12.50;;;;;;;8.78;61.16;100007.84;5035444;28;20053;-74
2021/04/30 09:43:07;;;;;;;26.92;13.52;;;;;;;8.71;61.24;100009.13;5035243;28;20052;-74
2021/04/30 09:45:35;;;;;;;25.08;12.73;;;;;;;8.91;60.80;100004.50;5049749;28;20055;-77
2021/04/30 09:48:07;;;;;;;18.90;12.10;;;;;;;8.79;61.36;99995.41;5027432;28;20079;-75
2021/04/30 09:50:34;;;;;;;28.83;14.20;;;;;;;8.80;61.13;100003.31;5045880;28;20156;-77
2021/04/30 09:53:03;;;;;;;23.35;13.45;;;;;;;8.99;60.31;99999.59;5055315;28;20049;-76
2021/04/30 09:55:50;;;;;;;24.23;13.73;;;;;;;9.20;60.05;99997.50;5054874;28;20087;-78
2021/04/30 09:58:22;;;;;;;25.42;13.07;;;;;;;9.27;60.37;100000.69;5037518;28;20049;-78
2021/04/30 10:00:53;;;;;;;23.10;15.45;;;;;;;9.10;60.89;99996.34;5055566;28;20060;-76
2021/04/30 10:03:24;;;;;;;29.35;15.30;;;;;;;9.38;60.28;99990.25;5021419;28;20041;-76
2021/04/30 10:06:19;;;;;;;25.45;13.85;;;;;;;9.69;59.10;99986.72;5057397;28;20060;-76
2021/04/30 10:09:06;;;;;;;25.65;14.40;;;;;;;9.89;59.30;99986.38;5041212;28;20060;-76
2021/04/30 10:11:35;;;;;;;24.80;15.20;;;;;;;9.91;58.74;99986.25;5058227;28;20102;-75
2021/04/30 10:14:02;;;;;;;29.05;15.65;;;;;;;9.88;58.80;99975.78;5046691;28;20052;-75
2021/04/30 10:16:29;;;;;;;25.67;15.80;;;;;;;10.04;59.25;99986.38;5041915;28;20053;-75
2021/04/30 10:18:55;;;;;;;26.45;17.25;;;;;;;9.96;58.56;99978.00;5021915;28;20045;-74
2021/04/30 10:21:22;;;;;;;24.45;17.98;;;;;;;10.02;58.16;99975.78;5036574;28;20442;-73
2021/04/30 10:23:50;;;;;;;25.55;16.40;;;;;;;10.05;58.14;99962.28;5021345;28;20398;-75
2021/04/30 10:26:18;;;;;;;25.85;17.08;;;;;;;10.57;57.80;99967.13;5019412;28;20053;-73
2021/04/30 10:28:51;;;;;;;29.33;16.73;;;;;;;10.63;56.25;99972.06;5035304;28;20068;-75
2021/04/30 10:31:27;;;;;;;32.00;16.92;;;;;;;10.76;57.07;99969.44;5035278;28;20045;-76
2021/04/30 10:34:05;;;;;;;31.83;16.65;;;;;;;10.88;56.00;99978.47;5036334;28;20054;-70
2021/04/30 10:36:42;;;;;;;26.83;15.65;;;;;;;10.72;56.20;99981.28;5035733;28;20054;-71
2021/04/30 10:39:09;;;;;;;24.85;16.25;;;;;;;10.88;56.36;99970.44;5044799;28;20124;-75
2021/04/30 10:41:41;;;;;;;29.95;16.58;;;;;;;10.96;56.94;99962.78;5055927;28;20140;-77
2021/04/30 10:44:28;;;;;;;33.25;18.08;;;;;;;10.63;56.92;99961.38;5054949;28;20084;-74
2021/04/30 10:47:12;;;;;;;24.13;16.65;;;;;;;10.82;57.50;99957.50;5054828;28;20500;-75
2021/04/30 10:49:41;;;;;;;29.23;17.45;;;;;;;10.58;57.48;99944.81;5055522;28;20053;-74
2021/04/30 10:52:08;;;;;;;25.58;16.67;;;;;;;10.90;56.36;99952.50;5057325;28;20053;-73
2021/04/30 10:54:40;;;;;;;26.25;17.02;;;;;;;10.73;56.74;99953.63;5059389;28;20052;-74
2021/04/30 10:57:18;;;;;;;29.55;16.60;;;;;;;10.91;56.18;99958.72;5059728;28;20053;-74
2021/04/30 10:59:46;;;;;;;28.77;17.23;;;;;;;10.80;56.52;99946.06;5073898;28;20044;-73
2021/04/30 11:02:33;;;;;;;24.23;16.83;;;;;;;10.90;56.52;99957.84;5058286;28;20049;-76
2021/04/30 11:05:03;;;;;;;27.40;17.35;;;;;;;10.96;56.49;99946.75;5058068;28;20083;-74
2021/04/30 11:07:38;;;;;;;27.48;17.55;;;;;;;10.86;56.47;99945.69;5057969;28;20049;-74
2021/04/30 11:10:30;;;;;;;25.90;17.95;;;;;;;10.95;56.04;99946.88;5058486;28;20048;-73
2021/04/30 11:13:15;;;;;;;30.13;17.17;;;;;;;10.85;56.55;99946.63;5068595;28;20131;-75
2021/04/30 11:15:47;;;;;;;25.95;17.98;;;;;;;10.75;56.58;99942.84;5041352;28;20060;-78
2021/04/30 11:18:19;;;;;;;25.13;16.90;;;;;;;10.93;56.76;99944.31;5040515;28;20048;-77
2021/04/30 11:21:09;;;;;;;27.17;18.02;;;;;;;11.03;55.85;99941.03;5058214;28;20066;-78
2021/04/30 11:23:35;;;;;;;28.98;16.95;;;;;;;11.10;56.59;99939.66;5058305;28;20048;-73
2021/04/30 11:26:08;;;;;;;31.77;18.52;;;;;;;11.05;56.08;99944.47;5058110;28;20107;-75
2021/04/30 11:28:34;;;;;;;28.35;16.48;;;;;;;11.09;55.03;99940.63;5040540;28;20106;-74
2021/04/30 11:31:12;;;;;;;38.83;18.35;;;;;;;11.05;55.54;99928.44;5057684;28;20053;-74
2021/04/30 11:33:40;;;;;;;35.10;18.70;;;;;;;10.73;55.30;99925.13;5057521;28;20484;-77